createdAt,value
2019-05-22T00:02:21.070Z,34.80
2019-05-22T00:05:14.096Z,33.67
2019-05-22T00:07:47.564Z,38.80
2019-05-22T00:10:22.484Z,39.30
2019-05-22T00:12:54.763Z,36.10
2019-05-22T00:17:57.884Z,30.45
2019-05-22T00:20:29.797Z,29.15
2019-05-22T00:23:04.387Z,29.60
2019-05-22T00:25:38.227Z,33.60
2019-05-22T00:28:10.162Z,33.63
2019-05-22T00:30:42.350Z,32.17
2019-05-22T00:33:14.965Z,32.25
2019-05-22T00:35:45.642Z,31.05
2019-05-22T00:38:18.132Z,30.70
2019-05-22T00:40:52.259Z,31.20
2019-05-22T00:43:31.508Z,30.27
2019-05-22T00:46:05.121Z,31.00
2019-05-22T00:48:36.721Z,32.60
2019-05-22T00:51:12.463Z,31.05
2019-05-22T00:54:00.325Z,32.17
2019-05-22T00:56:38.336Z,31.40
2019-05-22T00:59:14.427Z,29.95
2019-05-22T01:01:46.392Z,30.55
2019-05-22T01:04:19.320Z,32.30
2019-05-22T01:06:52.502Z,31.57
2019-05-22T01:09:39.560Z,30.57
2019-05-22T01:12:14.569Z,34.85
2019-05-22T01:14:46.494Z,33.80
2019-05-22T01:17:17.916Z,30.30
2019-05-22T01:19:51.466Z,30.52
2019-05-22T01:22:24.134Z,29.57
2019-05-22T01:24:55.165Z,29.67
2019-05-22T01:27:26.947Z,25.15
2019-05-22T01:29:57.498Z,27.87
2019-05-22T01:32:33.674Z,28.52
2019-05-22T01:35:05.514Z,28.07
2019-05-22T01:37:37.183Z,30.08
2019-05-22T01:40:12.441Z,28.70
2019-05-22T01:42:45.309Z,30.32
2019-05-22T01:45:16.762Z,30.75
2019-05-22T01:47:51.637Z,29.57
2019-05-22T01:50:45.041Z,28.73
2019-05-22T01:53:18.497Z,27.35
2019-05-22T01:55:51.912Z,28.95
2019-05-22T01:58:23.838Z,30.72
2019-05-22T02:00:56.877Z,27.42
2019-05-22T02:03:29.814Z,29.07
2019-05-22T02:06:01.880Z,32.80
2019-05-22T02:08:35.093Z,34.33
2019-05-22T02:11:08.709Z,35.10
2019-05-22T02:13:44.625Z,35.25
2019-05-22T02:16:17.169Z,35.08
2019-05-22T02:18:49.791Z,31.70
2019-05-22T02:21:22.237Z,31.05
2019-05-22T02:23:53.043Z,31.80
2019-05-22T02:26:24.498Z,31.33
2019-05-22T02:28:55.719Z,28.40
2019-05-22T02:31:26.792Z,30.40
2019-05-22T02:34:01.707Z,30.95
2019-05-22T02:36:34.636Z,29.70
2019-05-22T02:39:12.661Z,30.90
2019-05-22T02:41:46.366Z,33.30
2019-05-22T02:44:17.892Z,32.28
2019-05-22T02:46:50.652Z,33.48
2019-05-22T02:49:23.583Z,31.85
2019-05-22T02:51:56.462Z,35.78
2019-05-22T02:54:30.455Z,35.95
2019-05-22T02:57:02.594Z,36.90
2019-05-22T02:59:33.299Z,34.55
2019-05-22T03:02:05.132Z,34.55
2019-05-22T03:05:05.801Z,33.70
2019-05-22T03:07:36.894Z,34.60
2019-05-22T03:10:10.185Z,33.60
2019-05-22T03:12:42.071Z,35.00
2019-05-22T03:15:15.061Z,40.60
2019-05-22T03:17:48.301Z,38.33
2019-05-22T03:20:21.544Z,37.85
2019-05-22T03:23:10.174Z,38.05
2019-05-22T03:25:42.597Z,39.38
2019-05-22T03:28:14.052Z,40.55
2019-05-22T03:30:45.760Z,38.77
2019-05-22T03:33:16.838Z,40.33
2019-05-22T03:35:53.124Z,40.92
2019-05-22T03:38:26.235Z,40.60
2019-05-22T03:40:57.391Z,41.23
2019-05-22T03:43:30.010Z,40.45
2019-05-22T03:46:04.929Z,40.75
2019-05-22T03:48:38.111Z,40.43
2019-05-22T03:51:14.401Z,40.95
2019-05-22T03:53:46.614Z,39.70
2019-05-22T03:56:17.827Z,39.83
2019-05-22T03:58:48.203Z,41.23
2019-05-22T04:01:20.031Z,41.68
2019-05-22T04:03:50.589Z,40.60
2019-05-22T04:06:22.325Z,40.48
2019-05-22T04:08:55.011Z,44.27
2019-05-22T04:11:29.260Z,44.73
2019-05-22T04:13:59.823Z,43.63
2019-05-22T04:16:30.665Z,44.15
2019-05-22T04:19:02.944Z,43.45
2019-05-22T04:21:33.927Z,44.88
2019-05-22T04:24:05.289Z,43.15
2019-05-22T04:26:35.906Z,41.13
2019-05-22T04:29:07.034Z,41.20
2019-05-22T04:31:55.685Z,43.60
2019-05-22T04:34:26.606Z,42.38
2019-05-22T04:36:57.944Z,42.05
2019-05-22T04:39:31.921Z,43.93
2019-05-22T04:42:02.549Z,44.08
2019-05-22T04:44:33.489Z,45.00
2019-05-22T04:47:04.291Z,44.65
2019-05-22T04:49:35.065Z,46.05
2019-05-22T04:52:05.692Z,44.15
2019-05-22T04:54:36.228Z,46.73
2019-05-22T04:57:07.965Z,46.25
2019-05-22T04:59:39.380Z,45.17
2019-05-22T05:02:10.898Z,46.93
2019-05-22T05:04:42.075Z,44.80
2019-05-22T05:07:12.507Z,44.03
2019-05-22T05:09:42.860Z,46.00
2019-05-22T05:12:13.285Z,43.65
2019-05-22T05:14:44.362Z,43.87
2019-05-22T05:17:14.788Z,52.13
2019-05-22T05:19:45.169Z,54.40
2019-05-22T05:22:18.522Z,53.33
2019-05-22T05:24:49.556Z,55.17
2019-05-22T05:27:19.961Z,50.63
2019-05-22T05:29:50.382Z,48.02
2019-05-22T05:32:20.797Z,45.20
2019-05-22T05:34:54.160Z,46.08
2019-05-22T05:37:25.719Z,45.60
2019-05-22T05:40:06.686Z,46.75
2019-05-22T05:42:38.428Z,44.23
2019-05-22T05:45:13.879Z,47.55
2019-05-22T05:47:44.557Z,47.88
2019-05-22T05:50:17.076Z,47.58
2019-05-22T05:52:48.499Z,45.78
2019-05-22T05:55:21.389Z,47.33
2019-05-22T05:57:55.068Z,45.90
2019-05-22T06:00:33.170Z,44.60
2019-05-22T06:03:32.714Z,43.70
2019-05-22T06:06:21.925Z,44.77
2019-05-22T06:08:57.599Z,43.40
2019-05-22T06:11:56.542Z,43.02
2019-05-22T06:14:30.195Z,43.28
2019-05-22T06:17:26.299Z,43.83
2019-05-22T06:20:12.018Z,44.48
2019-05-22T06:22:44.048Z,44.55
2019-05-22T06:25:16.927Z,42.25
2019-05-22T06:27:51.719Z,42.53
2019-05-22T06:30:25.785Z,43.45
2019-05-22T06:33:09.496Z,43.90
2019-05-22T06:35:39.997Z,44.13
2019-05-22T06:38:39.145Z,41.00
2019-05-22T06:41:10.265Z,40.43
2019-05-22T06:43:43.718Z,37.45
2019-05-22T06:46:16.913Z,38.05
2019-05-22T06:48:48.019Z,39.95
2019-05-22T06:51:19.703Z,38.50
2019-05-22T06:53:50.478Z,36.95
2019-05-22T06:56:23.731Z,35.95
2019-05-22T06:58:52.927Z,33.18
2019-05-22T07:01:24.608Z,32.58
2019-05-22T07:03:55.407Z,32.53
2019-05-22T07:06:25.882Z,34.85
2019-05-22T07:08:57.020Z,33.33
2019-05-22T07:11:27.870Z,35.75
2019-05-22T07:13:59.826Z,36.10
2019-05-22T07:16:30.598Z,35.10
2019-05-22T07:19:01.822Z,36.33
2019-05-22T07:21:34.183Z,36.25
2019-05-22T07:24:05.874Z,38.78
2019-05-22T07:26:37.720Z,39.45
2019-05-22T07:29:09.061Z,38.25
2019-05-22T07:31:41.757Z,37.80
2019-05-22T07:34:12.976Z,37.60
2019-05-22T07:36:45.019Z,36.93
2019-05-22T07:39:15.876Z,36.20
2019-05-22T07:41:46.733Z,40.30
2019-05-22T07:44:17.279Z,34.80
2019-05-22T07:46:48.708Z,34.40
2019-05-22T07:49:19.468Z,33.98
2019-05-22T07:51:57.511Z,34.88
2019-05-22T07:56:52.485Z,30.62
2019-05-22T07:59:24.066Z,32.03
2019-05-22T08:01:55.210Z,30.85
2019-05-22T08:04:25.706Z,31.40
2019-05-22T08:06:56.117Z,30.05
2019-05-22T08:09:27.778Z,30.23
2019-05-22T08:11:59.928Z,30.82
2019-05-22T08:14:31.087Z,33.13
2019-05-22T08:17:03.823Z,33.78
2019-05-22T08:19:34.524Z,31.52
2019-05-22T08:22:07.658Z,30.12
2019-05-22T08:24:37.913Z,29.57
2019-05-22T08:27:09.414Z,31.97
2019-05-22T08:29:40.628Z,31.13
2019-05-22T08:32:22.456Z,28.65
2019-05-22T08:34:58.193Z,28.40
2019-05-22T08:37:34.615Z,28.52
2019-05-22T08:40:14.885Z,27.95
2019-05-22T08:42:47.273Z,28.40
2019-05-22T08:45:21.208Z,28.17
2019-05-22T08:47:56.800Z,30.82
2019-05-22T08:50:37.154Z,30.50
2019-05-22T08:53:11.126Z,27.87
2019-05-22T08:55:45.145Z,27.32
2019-05-22T08:58:20.235Z,27.35
2019-05-22T09:00:54.119Z,26.90
2019-05-22T09:03:25.335Z,13.32
2019-05-22T09:05:57.810Z,14.33
2019-05-22T09:08:32.380Z,16.52
2019-05-22T09:11:05.958Z,8.50
2019-05-22T09:13:39.327Z,6.42
2019-05-22T09:16:12.222Z,7.60
2019-05-22T09:18:45.048Z,7.40
2019-05-22T09:21:18.438Z,7.40
2019-05-22T09:23:51.304Z,7.37
2019-05-22T09:26:23.731Z,7.17
2019-05-22T09:28:54.259Z,7.22
2019-05-22T09:31:24.680Z,7.25
2019-05-22T09:33:55.122Z,7.45
2019-05-22T09:36:25.836Z,7.17
2019-05-22T09:38:56.359Z,8.03
2019-05-22T09:41:26.792Z,7.80
2019-05-22T09:43:57.256Z,8.08
2019-05-22T09:46:27.679Z,7.42
2019-05-22T09:48:59.965Z,7.17
2019-05-22T09:51:30.910Z,8.00
2019-05-22T09:54:02.288Z,8.08
2019-05-22T09:56:32.891Z,7.17
2019-05-22T09:59:04.080Z,8.28
2019-05-22T10:01:34.536Z,7.80
2019-05-22T10:04:05.257Z,8.65
2019-05-22T10:06:36.062Z,8.35
2019-05-22T10:09:08.660Z,8.65
2019-05-22T10:11:39.800Z,9.23
2019-05-22T10:14:10.930Z,8.25
2019-05-22T10:16:42.098Z,7.45
2019-05-22T10:19:13.139Z,8.75
2019-05-22T10:21:45.565Z,8.35
2019-05-22T10:24:17.046Z,8.63
2019-05-22T10:26:47.530Z,7.45
2019-05-22T10:29:17.941Z,6.70
2019-05-22T10:31:48.654Z,7.17
2019-05-22T10:34:19.060Z,7.35
2019-05-22T10:36:49.479Z,7.17
2019-05-22T10:39:24.496Z,7.70
2019-05-22T10:41:53.197Z,7.10
2019-05-22T10:44:23.988Z,7.25
2019-05-22T10:46:54.519Z,7.45
2019-05-22T10:49:25.702Z,7.45
2019-05-22T10:51:56.065Z,8.38
2019-05-22T10:54:26.429Z,8.65
2019-05-22T10:56:56.831Z,7.85
2019-05-22T10:59:27.505Z,8.35
2019-05-22T11:01:58.140Z,8.03
2019-05-22T11:04:30.028Z,9.03
2019-05-22T11:07:00.960Z,8.13
2019-05-22T11:12:04.401Z,8.95
2019-05-22T11:17:05.618Z,8.88
2019-05-22T11:19:36.359Z,7.67
2019-05-22T11:22:07.782Z,8.23
2019-05-22T11:24:38.665Z,7.93
2019-05-22T11:27:10.687Z,8.23
2019-05-22T11:29:43.285Z,7.87
2019-05-22T11:32:15.723Z,8.10
2019-05-22T11:34:46.847Z,7.60
2019-05-22T11:37:17.581Z,8.48
2019-05-22T11:39:48.101Z,8.20
2019-05-22T11:42:19.717Z,8.43
2019-05-22T11:44:50.098Z,9.53
2019-05-22T11:47:20.523Z,8.95
2019-05-22T11:49:51.162Z,9.83
2019-05-22T11:52:21.779Z,9.65
2019-05-22T11:54:53.343Z,8.53
2019-05-22T11:57:24.612Z,8.80
2019-05-22T11:59:55.141Z,9.17
2019-05-22T12:02:26.287Z,8.70
2019-05-22T12:04:57.321Z,8.70
2019-05-22T12:07:27.693Z,9.55
2019-05-22T12:09:59.538Z,9.38
2019-05-22T12:12:30.141Z,8.43
2019-05-22T12:15:01.467Z,9.68
2019-05-22T12:17:38.171Z,9.68
2019-05-22T12:20:10.345Z,14.03
2019-05-22T12:22:41.592Z,11.03
2019-05-22T12:25:13.737Z,10.20
2019-05-22T12:27:44.282Z,10.55
2019-05-22T12:30:16.013Z,10.00
2019-05-22T12:32:46.806Z,10.18
2019-05-22T12:35:18.715Z,10.55
2019-05-22T12:37:49.418Z,10.63
2019-05-22T12:40:21.162Z,11.03
2019-05-22T12:42:53.186Z,11.45
2019-05-22T12:45:26.075Z,10.68
2019-05-22T12:47:57.684Z,11.33
2019-05-22T12:50:31.788Z,10.03
2019-05-22T12:53:06.232Z,10.93
2019-05-22T12:55:37.561Z,11.18
2019-05-22T12:58:08.252Z,11.70
2019-05-22T13:00:38.906Z,10.68
2019-05-22T13:03:09.475Z,10.35
2019-05-22T13:05:41.026Z,10.88
2019-05-22T13:08:13.706Z,10.45
2019-05-22T13:10:45.717Z,12.03
2019-05-22T13:13:16.535Z,12.35
2019-05-22T13:15:47.622Z,12.13
2019-05-22T13:18:20.731Z,10.58
2019-05-22T13:20:53.266Z,10.75
2019-05-22T13:23:26.948Z,10.82
2019-05-22T13:25:58.626Z,11.55
2019-05-22T13:28:31.093Z,11.38
2019-05-22T13:31:02.177Z,11.22
2019-05-22T13:33:35.763Z,10.72
2019-05-22T13:36:08.348Z,9.80
2019-05-22T13:38:39.301Z,10.80
2019-05-22T13:41:11.118Z,11.70
2019-05-22T13:43:42.855Z,12.18
2019-05-22T13:46:14.100Z,11.80
2019-05-22T13:48:44.525Z,11.90
2019-05-22T13:51:15.665Z,13.80
2019-05-22T13:53:47.698Z,12.85
2019-05-22T13:56:18.582Z,12.78
2019-05-22T13:58:51.336Z,11.65
2019-05-22T14:01:22.102Z,13.05
2019-05-22T14:03:53.982Z,12.58
2019-05-22T14:06:25.017Z,12.58
2019-05-22T14:08:55.673Z,11.05
2019-05-22T14:11:26.317Z,12.15
2019-05-22T14:13:57.544Z,11.70
2019-05-22T14:16:28.095Z,12.60
2019-05-22T14:18:58.931Z,9.68
2019-05-22T14:21:29.452Z,10.48
2019-05-22T14:23:59.871Z,10.80
2019-05-22T14:26:30.309Z,10.80
2019-05-22T14:29:00.732Z,11.00
2019-05-22T14:31:32.386Z,10.20
2019-05-22T14:34:04.551Z,11.20
2019-05-22T14:36:36.274Z,10.20
2019-05-22T14:39:08.601Z,9.30
2019-05-22T14:41:39.095Z,10.30
2019-05-22T14:44:09.993Z,9.48
2019-05-22T14:46:40.453Z,8.25
2019-05-22T14:49:10.899Z,8.13
2019-05-22T14:51:42.241Z,9.35
2019-05-22T14:54:12.941Z,8.20
2019-05-22T14:56:45.086Z,7.33
2019-05-22T14:59:15.937Z,8.60
2019-05-22T15:01:46.304Z,8.65
2019-05-22T15:04:16.957Z,8.20
2019-05-22T15:06:49.128Z,9.18
2019-05-22T15:11:49.596Z,9.00
2019-05-22T15:14:20.229Z,8.35
2019-05-22T15:16:51.200Z,7.67
2019-05-22T15:19:22.350Z,8.98
2019-05-22T15:21:52.821Z,9.60
2019-05-22T15:24:24.965Z,9.15
2019-05-22T15:26:55.537Z,8.63
2019-05-22T15:29:26.668Z,9.00
2019-05-22T15:31:57.448Z,9.53
2019-05-22T15:34:30.896Z,9.13
2019-05-22T15:37:03.075Z,9.75
2019-05-22T15:39:35.172Z,11.18
2019-05-22T15:42:07.496Z,10.65
2019-05-22T15:44:40.477Z,9.48
2019-05-22T15:47:11.639Z,8.63
2019-05-22T15:49:45.222Z,9.28
2019-05-22T15:52:16.698Z,9.63
2019-05-22T15:54:48.555Z,9.70
2019-05-22T15:57:20.694Z,8.88
2019-05-22T15:59:52.626Z,9.83
2019-05-22T16:02:25.811Z,8.98
2019-05-22T16:04:58.246Z,9.58
2019-05-22T16:07:28.694Z,9.30
2019-05-22T16:10:00.019Z,7.85
2019-05-22T16:12:31.026Z,8.60
2019-05-22T16:15:01.903Z,8.45
2019-05-22T16:17:33.618Z,9.55
2019-05-22T16:20:07.752Z,8.85
2019-05-22T16:22:38.270Z,9.13
2019-05-22T16:25:09.903Z,8.78
2019-05-22T16:27:43.412Z,8.98
2019-05-22T16:30:15.827Z,8.53
2019-05-22T16:32:47.509Z,8.38
2019-05-22T16:35:20.172Z,9.48
2019-05-22T16:37:50.752Z,9.03
2019-05-22T16:40:22.588Z,8.50
2019-05-22T16:42:55.474Z,9.50
2019-05-22T16:45:27.308Z,9.30
2019-05-22T16:47:58.905Z,10.38
2019-05-22T16:50:29.458Z,10.13
2019-05-22T16:53:01.855Z,11.48
2019-05-22T16:55:33.278Z,10.30
2019-05-22T16:58:03.841Z,10.28
2019-05-22T17:00:34.765Z,13.85
2019-05-22T17:03:06.382Z,12.55
2019-05-22T17:05:38.403Z,16.35
2019-05-22T17:08:10.241Z,10.38
2019-05-22T17:10:41.230Z,10.75
2019-05-22T17:13:16.016Z,11.55
2019-05-22T17:15:46.892Z,11.20
2019-05-22T17:18:18.628Z,10.60
2019-05-22T17:20:50.690Z,10.60
2019-05-22T17:23:21.214Z,11.28
2019-05-22T17:25:51.878Z,10.60
2019-05-22T17:28:22.914Z,13.80
2019-05-22T17:30:54.309Z,11.18
2019-05-22T17:33:25.137Z,10.35
2019-05-22T17:35:56.949Z,12.25
2019-05-22T17:38:28.675Z,10.75
2019-05-22T17:41:00.813Z,15.75
2019-05-22T17:46:02.333Z,10.32
2019-05-22T17:48:35.116Z,11.50
2019-05-22T17:51:06.149Z,10.23
2019-05-22T17:53:37.018Z,10.30
2019-05-22T17:56:07.928Z,10.38
2019-05-22T17:58:38.509Z,9.65
2019-05-22T18:01:10.227Z,9.78
2019-05-22T18:03:41.629Z,9.40
2019-05-22T18:06:13.165Z,8.83
2019-05-22T18:08:44.532Z,10.18
2019-05-22T18:11:15.771Z,10.10
2019-05-22T18:13:54.724Z,11.97
2019-05-22T18:16:25.345Z,10.90
2019-05-22T18:18:56.305Z,8.38
2019-05-22T18:21:27.655Z,6.72
2019-05-22T18:23:59.625Z,6.85
2019-05-22T18:26:30.257Z,6.70
2019-05-22T18:29:00.935Z,7.37
2019-05-22T18:31:31.555Z,7.17
2019-05-22T18:34:02.185Z,7.05
2019-05-22T18:36:32.589Z,6.65
2019-05-22T18:39:05.789Z,6.55
2019-05-22T18:41:36.137Z,6.83
2019-05-22T18:44:06.552Z,5.87
2019-05-22T18:46:36.911Z,6.67
2019-05-22T18:49:07.431Z,6.55
2019-05-22T18:51:37.799Z,7.65
2019-05-22T18:54:08.211Z,7.08
2019-05-22T18:56:38.561Z,6.95
2019-05-22T18:59:09.088Z,6.85
2019-05-22T19:01:39.538Z,6.65
2019-05-22T19:04:10.381Z,6.80
2019-05-22T19:06:40.775Z,6.85
2019-05-22T19:09:11.787Z,6.20
2019-05-22T19:11:42.713Z,6.47
2019-05-22T19:14:13.720Z,6.50
2019-05-22T19:16:44.113Z,6.22
2019-05-22T19:19:16.105Z,5.80
2019-05-22T19:21:46.643Z,5.70
2019-05-22T19:24:17.060Z,5.22
2019-05-22T19:26:48.165Z,4.92
2019-05-22T19:29:18.923Z,6.42
2019-05-22T19:31:49.818Z,6.10
2019-05-22T19:34:20.667Z,5.78
2019-05-22T19:36:51.999Z,6.00
2019-05-22T19:39:22.659Z,6.12
2019-05-22T19:42:01.877Z,5.22
2019-05-22T19:46:55.538Z,5.12
2019-05-22T19:49:26.193Z,6.00
2019-05-22T19:51:58.146Z,6.20
2019-05-22T19:54:28.690Z,7.78
2019-05-22T19:56:59.695Z,8.03
2019-05-22T19:59:30.622Z,9.70
2019-05-22T20:02:00.992Z,9.60
2019-05-22T20:04:32.828Z,10.13
2019-05-22T20:07:04.880Z,10.90
2019-05-22T20:09:35.519Z,12.68
2019-05-22T20:12:07.825Z,10.05
2019-05-22T20:17:08.273Z,15.13
2019-05-22T20:19:39.017Z,17.27
2019-05-22T20:22:09.877Z,18.52
2019-05-22T20:24:40.756Z,19.32
2019-05-22T20:27:11.408Z,18.87
2019-05-22T20:29:41.763Z,19.73
2019-05-22T20:32:14.131Z,16.37
2019-05-22T20:34:45.362Z,15.48
2019-05-22T20:37:16.511Z,15.13
2019-05-22T20:39:47.634Z,15.18
2019-05-22T20:42:18.009Z,16.25
2019-05-22T20:44:48.837Z,15.38
2019-05-22T20:47:22.650Z,18.07
2019-05-22T20:49:54.636Z,18.80
2019-05-22T20:52:25.163Z,18.07
2019-05-22T20:54:56.385Z,19.85
2019-05-22T20:57:28.752Z,20.12
2019-05-22T20:59:59.775Z,21.23
2019-05-22T21:02:31.581Z,21.35
2019-05-22T21:05:02.040Z,22.85
2019-05-22T21:07:36.409Z,23.85
2019-05-22T21:10:08.457Z,24.23
2019-05-22T21:12:39.577Z,23.67
2019-05-22T21:15:11.349Z,24.50
2019-05-22T21:17:44.084Z,24.10
2019-05-22T21:20:17.752Z,25.72
2019-05-22T21:22:49.070Z,26.35
2019-05-22T21:25:19.944Z,26.27
2019-05-22T21:27:50.461Z,28.20
2019-05-22T21:30:24.002Z,25.90
2019-05-22T21:32:55.484Z,26.17
2019-05-22T21:35:26.599Z,28.03
2019-05-22T21:37:58.961Z,28.57
2019-05-22T21:40:29.439Z,28.25
2019-05-22T21:43:00.981Z,29.98
2019-05-22T21:45:32.357Z,29.12
2019-05-22T21:48:03.595Z,30.40
2019-05-22T21:50:34.464Z,30.32
2019-05-22T21:53:07.769Z,30.75
2019-05-22T21:55:39.817Z,30.10
2019-05-22T21:58:10.776Z,29.35
2019-05-22T22:00:45.713Z,29.45
2019-05-22T22:03:21.621Z,26.73
2019-05-22T22:05:52.638Z,27.52
2019-05-22T22:08:23.774Z,26.17
2019-05-22T22:10:54.460Z,25.55
2019-05-22T22:13:26.752Z,24.32
2019-05-22T22:15:57.865Z,23.67
2019-05-22T22:18:28.301Z,21.75
2019-05-22T22:20:59.141Z,22.82
2019-05-22T22:23:31.237Z,21.62
2019-05-22T22:26:01.764Z,19.12
2019-05-22T22:28:32.132Z,21.93
2019-05-22T22:31:08.245Z,22.07
2019-05-22T22:33:40.705Z,22.67
2019-05-22T22:36:11.657Z,22.10
2019-05-22T22:38:43.236Z,24.00
2019-05-22T22:41:16.081Z,22.58
2019-05-22T22:43:49.049Z,23.83
2019-05-22T22:46:41.728Z,23.98
2019-05-22T22:51:47.084Z,25.48
2019-05-22T22:54:18.147Z,25.32
2019-05-22T22:56:49.604Z,25.60
2019-05-22T22:59:20.351Z,27.30
2019-05-22T23:01:54.061Z,25.62
2019-05-22T23:04:27.404Z,26.12
2019-05-22T23:07:02.810Z,28.45
2019-05-22T23:09:36.102Z,28.55
2019-05-22T23:12:08.088Z,27.37
2019-05-22T23:14:41.453Z,28.50
2019-05-22T23:17:12.964Z,28.25
2019-05-22T23:19:46.214Z,29.72
2019-05-22T23:22:16.980Z,29.18
2019-05-22T23:24:49.639Z,30.08
2019-05-22T23:27:23.552Z,28.25
2019-05-22T23:29:54.525Z,29.40
2019-05-22T23:32:26.051Z,29.87
2019-05-22T23:34:59.829Z,29.75
2019-05-22T23:37:31.850Z,28.90
2019-05-22T23:40:03.337Z,28.25
2019-05-22T23:42:36.505Z,29.23
2019-05-22T23:45:10.849Z,28.12
2019-05-22T23:47:59.042Z,26.00
2019-05-22T23:50:31.881Z,28.10
2019-05-22T23:53:02.649Z,22.98
2019-05-22T23:55:34.477Z,24.77
2019-05-22T23:58:06.908Z,23.57
